Nootdorp, Netherlands

1:18 AM CET on February 08, 2016 (GMT +0100)
Den Haag - Ypenburg | | Change Station
CLOSE
Current Station
Personal Weather Station
Location: Den Haag, ZUID-HOLLAND
Elevation: -7 ft
Nearby Weather Stations

Elev -7 ft 52.04 °N, 4.36 °E | Updated 2 minutes ago

Light Rain
Light Rain Drizzle
45.1 °F
Feels Like 40 °F
N
9.1
Wind Variable Wind from South
Gusts 17.0 mph

Today
High -- | Low -- °F
--% Chance of Precip.
Yesterday
High -- | Low -- °F
Precip. -- in
Pressure 29.36 in
Visibility 6.2 miles
Clouds Few 1700 ft
Overcast 2200 ft
Windchill 40 °F
Dew Point 42 °F
Humidity 88%
Rainfall 0.00 in
Snow Depth Not available.
8:11 AM 5:42 PM
Waning Crescent, 1% visible
SPECI EHWO 080010Z AUTO 20019G39KT 170V240 9999 -RADZ FEW017CB OVC022 08/04 Q0994 WHT
Pressure 29.36 in
Visibility 6.2 miles
Clouds Few 1700 ft
Overcast 2200 ft
Windchill 40 °F
Dew Point 42 °F
Humidity 88%
Rainfall 0.00 in
Snow Depth Not available.
8:11 AM 5:42 PM
Waning Crescent, 1% visible
SPECI EHWO 080010Z AUTO 20019G39KT 170V240 9999 -RADZ FEW017CB OVC022 08/04 Q0994 WHT

10-Day Weather Forecast

Almanac

Astronomy

Feb. 08, 2016 Rise Set
Actual Time
Civil Twilight
Nautical Twilight
Astronomical Twilight
Moon
Length of Visible Light
Length of Day
Tomorrow will be .
, % of the Moon is Illuminated

Today's Extremes

Country Highs Country Lows

Community

WunderPhotos

Upload Photos

1,891,334 photos uploaded!

WunderBlog® & News

Nearby

Air Quality

  Air Quality AQ Index Pollutant
Not available.

Snow Depth

Station Depth Elevation

Earthquake Activity

City Distance Mag. Time & Date
Minimum magnitude displayed is 2.5.

Coastal Water Temperatures

Place Temperature

Stations

Nearby Weather Stations

Station Location Temp. Windchill Dew Point Humidity Wind Precip. Elev Updated Type